Time;durP1;ratioP1;P1;durP2;ratioP2;P2;SDS_P1;SDS_P2;PMS_P1;PMS_P2;Temp;Humidity;BMP_temperature;BMP_pressure;BME280_temperature;BME280_humidity;BME280_pressure;Samples;Min_cycle;Max_cycle;Signal;HPM_P1;HPM_P2
2022/04/26 03:37:25;;;;;;;4.97;4.68;;;23.50;66.60;;;;;;4964197;28;96433;-59
2022/04/26 03:39:57;;;;;;;3.88;3.58;;;23.60;67.30;;;;;;4962698;28;95901;-63
2022/04/26 03:42:28;;;;;;;2.00;1.90;;;23.60;66.20;;;;;;4954924;28;96691;-62
2022/04/26 03:44:58;;;;;;;2.05;1.83;;;23.60;66.20;;;;;;4966318;28;95723;-62
2022/04/26 03:47:29;;;;;;;;;;;23.50;66.60;;;;;;4965130;28;96164;-65
2022/04/26 03:49:59;;;;;;;2.35;1.67;;;23.50;64.50;;;;;;4967929;28;96249;-62
2022/04/26 03:52:31;;;;;;;2.05;1.85;;;23.50;64.30;;;;;;4963948;28;98499;-63
2022/04/26 03:55:03;;;;;;;4.85;2.78;;;23.60;65.60;;;;;;4965248;28;95835;-62
2022/04/26 03:57:34;;;;;;;8.55;7.97;;;23.60;63.90;;;;;;4965230;28;95796;-63
2022/04/26 04:00:05;;;;;;;5.70;5.40;;;23.60;64.70;;;;;;4965448;28;96033;-64
2022/04/26 04:02:35;;;;;;;6.55;5.95;;;23.70;63.80;;;;;;4960242;28;96423;-62
2022/04/26 04:05:06;;;;;;;8.00;7.57;;;23.80;65.90;;;;;;4965975;28;95909;-63
2022/04/26 04:07:38;;;;;;;7.85;7.38;;;23.90;66.10;;;;;;4966639;28;95909;-62
2022/04/26 04:10:10;;;;;;;7.90;7.38;;;23.90;66.00;;;;;;4966871;28;95407;-61
2022/04/26 04:12:41;;;;;;;7.40;7.03;;;23.90;63.60;;;;;;4964041;28;95887;-61
2022/04/26 04:15:12;;;;;;;3.28;3.05;;;23.90;62.90;;;;;;4958596;28;95867;-59
2022/04/26 04:17:43;;;;;;;7.15;6.72;;;23.90;65.10;;;;;;4959257;28;95833;-59
2022/04/26 04:20:15;;;;;;;3.75;3.45;;;23.90;60.80;;;;;;4961955;28;95686;-60
2022/04/26 04:22:53;;;;;;;3.38;3.08;;;23.80;64.70;;;;;;4960273;28;96909;-56
2022/04/26 04:25:24;;;;;;;2.53;2.33;;;23.70;64.20;;;;;;4955651;28;98242;-60
2022/04/26 04:27:58;;;;;;;2.38;1.80;;;23.70;63.40;;;;;;4959226;28;96000;-60
2022/04/26 04:30:29;;;;;;;2.40;2.20;;;23.60;64.50;;;;;;4961703;28;96110;-60
2022/04/26 04:33:03;;;;;;;2.53;2.10;;;23.50;64.10;;;;;;4947421;28;95881;-61
2022/04/26 04:35:34;;;;;;;7.10;6.63;;;23.50;64.60;;;;;;4945939;28;95815;-61
2022/04/26 04:38:08;;;;;;;10.15;9.63;;;23.50;64.50;;;;;;4949839;28;95817;-62
2022/04/26 04:40:38;;;;;;;6.22;5.93;;;23.50;64.50;;;;;;4945113;28;96016;-61
2022/04/26 04:43:13;;;;;;;6.88;6.53;;;23.50;65.30;;;;;;4930098;28;96357;-62
2022/04/26 04:45:44;;;;;;;10.15;9.52;;;23.60;64.80;;;;;;4936750;28;96467;-64
2022/04/26 04:48:14;;;;;;;3.07;2.87;;;23.60;64.60;;;;;;4950607;28;98441;-63
2022/04/26 04:50:45;;;;;;;8.75;8.20;;;23.60;62.80;;;;;;4951961;28;96097;-61
2022/04/26 04:53:19;;;;;;;3.70;3.15;;;23.60;63.20;;;;;;4951154;28;95903;-61
2022/04/26 04:55:50;;;;;;;1.80;1.63;;;23.70;64.40;;;;;;4950765;28;96367;-61
2022/04/26 04:58:20;;;;;;;2.80;2.33;;;23.60;64.80;;;;;;4949697;28;96215;-60
2022/04/26 05:00:50;;;;;;;3.40;3.20;;;23.70;62.70;;;;;;4938123;28;95686;-62
2022/04/26 05:03:21;;;;;;;3.70;3.50;;;23.70;63.90;;;;;;4950208;28;98161;-63
2022/04/26 05:05:52;;;;;;;2.83;2.63;;;23.70;63.40;;;;;;4947686;28;97226;-63
2022/04/26 05:08:25;;;;;;;2.53;1.67;;;23.70;64.40;;;;;;4949505;28;95760;-60
2022/04/26 05:10:55;;;;;;;2.28;1.65;;;23.80;64.60;;;;;;4951129;28;95792;-58
2022/04/26 05:13:26;;;;;;;2.35;2.15;;;23.80;64.20;;;;;;4949430;28;95994;-60
2022/04/26 05:15:57;;;;;;;2.45;1.90;;;23.80;64.90;;;;;;4941477;28;97587;-59
2022/04/26 05:18:29;;;;;;;3.55;2.30;;;23.80;62.20;;;;;;4943841;28;95991;-65
2022/04/26 05:21:01;;;;;;;2.13;1.77;;;23.80;63.20;;;;;;4949257;28;95875;-62
2022/04/26 05:26:23;;;;;;;3.50;1.95;;;23.60;62.60;;;;;;4948187;28;95334;-61
2022/04/26 05:28:53;;;;;;;1.83;1.73;;;23.50;61.60;;;;;;4954123;28;95733;-64
2022/04/26 05:31:24;;;;;;;2.65;1.60;;;23.50;62.70;;;;;;4945663;28;100868;-65
2022/04/26 05:33:55;;;;;;;4.75;2.25;;;23.50;63.20;;;;;;4951982;28;96736;-60
2022/04/26 05:36:36;;;;;;;13.65;2.30;;;23.50;62.20;;;;;;4950169;28;96303;-61
2022/04/26 05:39:07;;;;;;;2.33;2.08;;;23.50;63.40;;;;;;4952398;28;95327;-59
2022/04/26 05:41:45;;;;;;;2.55;1.67;;;23.50;61.40;;;;;;4934262;28;96023;-59
2022/04/26 05:44:15;;;;;;;;;;;23.50;62.20;;;;;;4944546;28;96153;-61
2022/04/26 05:46:46;;;;;;;5.03;2.30;;;23.40;62.40;;;;;;4943156;28;98094;-63
2022/04/26 05:49:17;;;;;;;2.25;1.95;;;23.30;63.60;;;;;;4951390;28;96030;-60
2022/04/26 05:51:49;;;;;;;;;;;23.10;61.30;;;;;;4946567;28;96208;-65
2022/04/26 05:54:23;;;;;;;3.08;2.10;;;22.90;60.40;;;;;;4953785;28;96489;-66
2022/04/26 05:56:53;;;;;;;3.28;1.60;;;22.60;63.70;;;;;;4951526;28;95850;-66
2022/04/26 05:59:24;;;;;;;3.25;1.83;;;22.40;63.90;;;;;;4951369;28;96049;-64
2022/04/26 06:01:54;;;;;;;3.83;1.92;;;22.40;64.20;;;;;;4952294;28;98025;-65
2022/04/26 06:04:26;;;;;;;1.95;1.75;;;22.30;63.10;;;;;;4961794;28;96798;-63
2022/04/26 06:06:58;;;;;;;2.28;2.05;;;22.20;63.00;;;;;;4958864;28;96171;-61
2022/04/26 06:09:30;;;;;;;3.95;2.20;;;22.10;64.30;;;;;;4959350;28;95540;-62
2022/04/26 06:12:02;;;;;;;4.68;1.60;;;21.90;64.90;;;;;;4963485;28;96279;-65
2022/04/26 06:14:32;;;;;;;5.40;2.03;;;22.00;65.10;;;;;;4955305;28;98265;-66
2022/04/26 06:17:04;;;;;;;3.25;2.53;;;21.90;66.20;;;;;;4940694;28;96031;-66
2022/04/26 06:19:35;;;;;;;3.38;1.95;;;21.70;66.80;;;;;;4941897;28;95841;-65
2022/04/26 06:22:06;;;;;;;4.95;1.85;;;21.60;67.00;;;;;;4940678;28;95764;-65
2022/04/26 06:24:38;;;;;;;4.75;2.58;;;21.50;67.50;;;;;;4937268;28;95874;-65
2022/04/26 06:27:08;;;;;;;9.45;2.58;;;21.40;67.50;;;;;;4940888;28;95848;-64
2022/04/26 06:29:39;;;;;;;10.77;2.45;;;21.30;68.10;;;;;;4943607;28;95603;-65
2022/04/26 06:32:11;;;;;;;6.43;2.20;;;21.20;67.20;;;;;;4959770;28;95868;-65
2022/04/26 06:34:43;;;;;;;12.57;2.70;;;21.00;69.30;;;;;;4941862;28;95892;-65
2022/04/26 06:37:14;;;;;;;9.82;2.05;;;20.80;70.90;;;;;;4968349;28;95953;-65
2022/04/26 06:39:44;;;;;;;5.50;1.92;;;20.70;69.60;;;;;;4940287;28;95735;-65
2022/04/26 06:42:15;;;;;;;8.02;2.03;;;20.70;70.00;;;;;;4924667;28;95838;-68
2022/04/26 06:44:45;;;;;;;3.17;2.35;;;20.70;71.10;;;;;;4938901;28;96833;-67
2022/04/26 06:47:16;;;;;;;6.22;2.40;;;20.70;70.30;;;;;;4933397;28;95904;-67
2022/04/26 06:49:46;;;;;;;3.92;2.40;;;20.70;69.40;;;;;;4940646;28;96003;-65
2022/04/26 06:52:17;;;;;;;2.78;2.28;;;20.70;70.30;;;;;;4942547;28;95896;-66
2022/04/26 06:54:48;;;;;;;4.57;2.60;;;20.70;68.40;;;;;;4943280;28;96414;-66
2022/04/26 06:57:19;;;;;;;5.68;2.45;;;20.60;71.20;;;;;;4964968;28;96758;-67
2022/04/26 06:59:50;;;;;;;6.75;2.70;;;20.50;70.70;;;;;;4937599;28;96119;-67
2022/04/26 07:02:20;;;;;;;2.75;2.55;;;20.50;71.40;;;;;;4935448;28;96972;-69
2022/04/26 07:04:51;;;;;;;5.32;3.40;;;20.40;71.40;;;;;;4943089;28;98689;-65
2022/04/26 07:07:22;;;;;;;;;;;20.30;71.30;;;;;;4919345;28;95870;-66
2022/04/26 07:09:53;;;;;;;5.80;3.30;;;20.20;71.70;;;;;;4941080;28;96001;-66
2022/04/26 07:12:23;;;;;;;5.15;3.47;;;20.10;71.80;;;;;;4941818;28;95802;-66
2022/04/26 07:14:53;;;;;;;6.47;3.10;;;20.10;72.40;;;;;;4936315;28;96444;-65
2022/04/26 07:17:24;;;;;;;;;;;20.00;71.80;;;;;;4929819;28;95935;-66
2022/04/26 07:19:58;;;;;;;7.50;2.92;;;20.00;72.30;;;;;;4941624;28;95694;-64
2022/04/26 07:22:32;;;;;;;8.95;3.88;;;19.90;72.30;;;;;;4941025;28;95647;-63
2022/04/26 07:25:06;;;;;;;8.07;3.58;;;19.80;72.50;;;;;;4940789;28;95875;-66
2022/04/26 07:27:37;;;;;;;9.23;4.05;;;19.70;72.80;;;;;;4939467;28;96057;-64
2022/04/26 07:30:10;;;;;;;8.73;4.00;;;19.60;73.30;;;;;;4935701;28;95773;-66
2022/04/26 07:35:41;;;;;;;4.43;3.58;;;19.50;73.40;;;;;;4944704;28;95872;-65
2022/04/26 07:38:13;;;;;;;8.55;3.65;;;19.50;73.30;;;;;;4936806;28;96440;-65
2022/04/26 07:40:45;;;;;;;6.97;3.65;;;19.40;73.90;;;;;;4934069;28;96311;-63
2022/04/26 07:43:17;;;;;;;10.13;3.40;;;19.30;73.80;;;;;;4927623;28;96239;-66
2022/04/26 07:45:48;;;;;;;8.70;3.50;;;19.40;73.40;;;;;;4931401;28;96710;-66
2022/04/26 07:48:20;;;;;;;5.90;3.80;;;19.30;73.70;;;;;;4934512;28;96135;-66
2022/04/26 07:50:51;;;;;;;7.95;3.72;;;19.20;74.10;;;;;;4936721;28;95866;-66
2022/04/26 07:53:25;;;;;;;9.50;3.47;;;19.20;74.20;;;;;;4939200;28;97694;-67
2022/04/26 07:55:57;;;;;;;8.98;4.70;;;19.20;74.20;;;;;;4939140;28;95768;-69
2022/04/26 07:58:27;;;;;;;6.63;3.75;;;19.00;74.00;;;;;;4938286;28;96029;-62
2022/04/26 08:00:58;;;;;;;5.45;3.88;;;19.00;74.50;;;;;;4929729;28;95900;-65
2022/04/26 08:03:32;;;;;;;7.32;4.30;;;18.90;74.30;;;;;;4940227;28;95455;-65
2022/04/26 08:06:02;;;;;;;6.50;5.80;;;18.80;74.90;;;;;;4936592;28;96741;-64
2022/04/26 08:08:34;;;;;;;8.15;5.63;;;18.70;74.60;;;;;;4937704;28;96734;-64
2022/04/26 08:11:06;;;;;;;6.15;5.07;;;18.60;75.00;;;;;;4938554;28;95735;-64
2022/04/26 08:13:35;;;;;;;6.18;5.20;;;18.60;75.20;;;;;;4940146;28;96177;-62
2022/04/26 08:16:06;;;;;;;8.10;5.22;;;18.60;75.40;;;;;;4957654;28;98707;-64
2022/04/26 08:18:40;;;;;;;6.35;4.47;;;18.60;75.20;;;;;;4941009;28;96068;-65
2022/04/26 08:21:14;;;;;;;9.50;4.47;;;18.50;75.30;;;;;;4937367;28;96192;-65
2022/04/26 08:29:23;;;;;;;6.82;3.83;;;19.20;77.70;;;;;;4938398;28;96456;-65
2022/04/26 08:31:55;;;;;;;4.80;3.47;;;19.80;74.70;;;;;;4932873;28;96390;-65
2022/04/26 08:34:28;;;;;;;4.55;3.33;;;20.10;75.60;;;;;;4939089;28;95807;-65
2022/04/26 08:36:59;;;;;;;4.85;3.47;;;20.40;75.70;;;;;;4935561;28;98315;-64
2022/04/26 08:39:30;;;;;;;6.28;3.30;;;20.50;74.60;;;;;;4929901;28;98006;-65
2022/04/26 08:42:04;;;;;;;4.10;3.70;;;20.70;74.40;;;;;;4929405;28;96725;-63
2022/04/26 08:44:35;;;;;;;3.60;3.30;;;20.80;74.30;;;;;;4937411;28;95772;-65
2022/04/26 08:52:51;;;;;;;19.48;12.70;;;21.00;73.80;;;;;;4959435;28;95339;-66
2022/04/26 08:55:22;;;;;;;28.05;15.73;;;21.00;73.70;;;;;;4954349;28;95257;-67
2022/04/26 08:57:53;;;;;;;52.53;30.10;;;21.10;73.70;;;;;;4943155;28;96155;-65
2022/04/26 09:00:24;;;;;;;60.40;33.53;;;21.10;73.70;;;;;;4950644;28;97930;-65
2022/04/26 09:03:04;;;;;;;70.55;39.20;;;21.20;73.80;;;;;;4959152;28;95833;-66
2022/04/26 09:05:37;;;;;;;78.60;40.10;;;21.20;73.60;;;;;;4960124;28;95758;-66
2022/04/26 09:08:28;;;;;;;110.70;59.65;;;21.20;71.90;;;;;;4958747;28;95947;-65
2022/04/26 09:11:00;;;;;;;97.45;59.33;;;21.20;73.80;;;;;;4956099;28;95870;-65
2022/04/26 09:13:41;;;;;;;100.97;64.18;;;21.30;74.10;;;;;;4954896;28;95590;-65
2022/04/26 09:16:22;;;;;;;114.35;65.57;;;21.20;73.90;;;;;;4952928;28;98645;-65
2022/04/26 09:18:59;;;;;;;115.53;68.97;;;21.30;74.10;;;;;;4958701;28;96920;-65
2022/04/26 09:21:30;;;;;;;121.55;70.75;;;21.30;74.10;;;;;;4973950;28;95892;-64
2022/04/26 09:24:06;;;;;;;;;;;21.30;74.10;;;;;;4959755;28;95914;-65
2022/04/26 09:26:38;;;;;;;118.53;69.57;;;21.30;74.20;;;;;;4956910;28;95930;-65
2022/04/26 09:29:21;;;;;;;126.78;71.43;;;21.30;74.10;;;;;;4956027;28;96307;-65
2022/04/26 09:32:04;;;;;;;123.97;74.38;;;21.30;74.20;;;;;;4946766;28;96040;-65
2022/04/26 09:34:40;;;;;;;112.55;68.35;;;21.30;74.20;;;;;;4956142;28;95628;-65
2022/04/26 09:37:12;;;;;;;118.82;71.43;;;21.30;74.20;;;;;;4956426;28;96070;-65
2022/04/26 09:40:08;;;;;;;107.18;66.47;;;21.30;74.30;;;;;;4955922;28;96697;-65
2022/04/26 09:42:39;;;;;;;113.63;67.68;;;21.30;74.10;;;;;;4945711;28;95894;-65
2022/04/26 09:45:13;;;;;;;96.72;60.05;;;21.30;74.10;;;;;;4946335;28;95401;-67
2022/04/26 09:47:45;;;;;;;87.55;54.33;;;21.20;74.00;;;;;;4954700;28;95828;-65
2022/04/26 09:50:20;;;;;;;98.22;59.03;;;21.30;74.00;;;;;;4955647;28;96303;-68
2022/04/26 09:52:55;;;;;;;100.63;59.33;;;21.20;74.00;;;;;;4955283;28;96102;-64
2022/04/26 09:55:29;;;;;;;102.75;62.83;;;21.20;74.10;;;;;;4956538;28;95803;-66
2022/04/26 09:58:00;;;;;;;97.07;58.00;;;21.20;74.10;;;;;;4956797;28;95362;-66
2022/04/26 10:00:32;;;;;;;94.93;57.70;;;21.20;74.10;;;;;;4945425;28;96632;-64
2022/04/26 10:03:09;;;;;;;95.90;58.92;;;21.20;74.10;;;;;;4942197;28;96204;-66
2022/04/26 10:05:42;;;;;;;95.40;58.85;;;21.20;74.20;;;;;;4946826;28;97383;-66
2022/04/26 10:08:15;;;;;;;90.85;55.88;;;21.10;72.40;;;;;;4947067;28;96432;-65
2022/04/26 10:10:47;;;;;;;88.20;54.22;;;21.10;74.30;;;;;;4947436;28;96359;-65
2022/04/26 10:13:36;;;;;;;81.53;51.40;;;21.10;74.40;;;;;;4949865;28;96269;-65
2022/04/26 10:16:09;;;;;;;94.78;53.30;;;21.10;74.40;;;;;;4944705;28;98070;-64
2022/04/26 10:18:48;;;;;;;83.20;47.53;;;21.10;74.40;;;;;;4954546;28;96223;-64
2022/04/26 10:21:22;;;;;;;78.18;49.88;;;21.10;74.40;;;;;;4956729;28;95881;-64
2022/04/26 10:24:12;;;;;;;90.50;50.05;;;21.10;74.30;;;;;;4959750;28;95867;-64
2022/04/26 10:26:42;;;;;;;82.70;47.95;;;21.10;74.30;;;;;;4956613;28;95372;-65
2022/04/26 10:29:23;;;;;;;75.20;46.17;;;21.00;74.30;;;;;;4957944;28;96609;-65
2022/04/26 10:31:59;;;;;;;;;;;21.10;72.70;;;;;;4937535;28;96561;-64
2022/04/26 10:34:34;;;;;;;78.20;47.00;;;21.00;74.40;;;;;;4938260;28;95792;-65
2022/04/26 10:37:10;;;;;;;69.50;44.35;;;21.10;74.40;;;;;;4934476;28;95917;-65
2022/04/26 10:39:50;;;;;;;76.63;44.55;;;21.00;74.30;;;;;;4938885;28;95747;-65
2022/04/26 10:42:22;;;;;;;78.55;45.03;;;21.00;74.40;;;;;;4951371;28;95946;-65
2022/04/26 10:44:59;;;;;;;68.03;40.90;;;21.00;74.40;;;;;;4936778;28;98166;-63
2022/04/26 10:47:30;;;;;;;67.82;41.38;;;21.00;74.40;;;;;;4945448;28;95419;-66
2022/04/26 10:50:02;;;;;;;63.55;39.40;;;21.00;74.30;;;;;;4940399;28;96057;-66
2022/04/26 10:52:36;;;;;;;67.15;41.40;;;20.90;74.50;;;;;;4933479;28;96478;-65
2022/04/26 10:55:09;;;;;;;67.30;40.97;;;21.00;72.80;;;;;;4938729;28;96004;-65
2022/04/26 10:57:50;;;;;;;66.82;40.83;;;21.00;74.50;;;;;;4951989;28;96442;-66
2022/04/26 11:00:27;;;;;;;62.73;37.80;;;20.90;74.30;;;;;;4932266;28;95953;-66
2022/04/26 11:03:05;;;;;;;57.20;37.78;;;20.90;74.60;;;;;;4956036;28;103321;-64
2022/04/26 11:05:37;;;;;;;66.47;38.78;;;20.90;74.40;;;;;;4958080;28;95919;-67
2022/04/26 11:08:09;;;;;;;63.60;39.35;;;20.90;71.00;;;;;;4953978;28;96608;-65
2022/04/26 11:13:35;;;;;;;50.60;33.97;;;20.90;74.40;;;;;;4957764;28;95902;-65
2022/04/26 11:16:12;;;;;;;57.28;36.00;;;20.80;74.50;;;;;;4950048;28;95712;-64
2022/04/26 11:18:45;;;;;;;61.72;35.78;;;20.80;74.40;;;;;;4958020;28;95961;-65
2022/04/26 11:21:16;;;;;;;54.08;33.33;;;20.80;74.50;;;;;;4971500;28;95998;-65
2022/04/26 11:29:51;;;;;;;53.08;31.35;;;20.80;74.50;;;;;;4959114;28;97026;-66
2022/04/26 11:32:28;;;;;;;51.58;32.15;;;20.70;74.50;;;;;;4933256;28;98656;-65
2022/04/26 11:35:00;;;;;;;50.10;30.90;;;20.70;74.60;;;;;;4937833;28;95897;-65
2022/04/26 11:37:30;;;;;;;49.58;29.52;;;20.70;74.80;;;;;;4939760;28;96119;-66
2022/04/26 11:40:03;;;;;;;46.17;30.10;;;20.70;74.70;;;;;;4952460;28;96598;-66
2022/04/26 11:42:37;;;;;;;47.90;29.13;;;20.60;74.70;;;;;;4925347;28;95987;-66
2022/04/26 11:45:08;;;;;;;44.55;27.67;;;20.60;74.80;;;;;;4936731;28;96085;-67
2022/04/26 11:47:44;;;;;;;47.17;30.30;;;20.60;74.80;;;;;;4939397;28;96449;-67
2022/04/26 11:50:23;;;;;;;47.10;29.38;;;20.60;74.80;;;;;;4933959;28;95930;-66
2022/04/26 11:53:17;;;;;;;41.50;26.75;;;20.60;74.90;;;;;;4939491;28;96031;-67
2022/04/26 11:55:53;;;;;;;41.83;27.35;;;20.50;74.80;;;;;;4937738;28;96653;-67
2022/04/26 11:58:29;;;;;;;41.67;27.92;;;20.50;74.90;;;;;;4931626;28;95751;-65
2022/04/26 12:01:13;;;;;;;49.20;27.60;;;20.50;74.90;;;;;;4926526;28;95932;-66
2022/04/26 12:03:51;;;;;;;42.22;25.27;;;20.40;74.90;;;;;;4937177;28;95910;-67
2022/04/26 12:06:32;;;;;;;35.70;24.50;;;20.40;74.90;;;;;;4936435;28;97130;-63
2022/04/26 12:09:15;;;;;;;40.20;24.67;;;20.40;75.00;;;;;;4936385;28;98822;-68
2022/04/26 12:11:58;;;;;;;36.00;23.23;;;20.40;71.70;;;;;;4939254;28;95799;-66
2022/04/26 12:14:31;;;;;;;40.10;24.75;;;20.40;75.00;;;;;;4932622;28;95251;-67
2022/04/26 12:17:03;;;;;;;33.40;21.77;;;20.40;75.00;;;;;;4952750;28;96645;-66
2022/04/26 12:19:38;;;;;;;35.95;22.80;;;20.30;75.00;;;;;;4945513;28;96186;-66
2022/04/26 12:22:07;;;;;;;34.25;21.20;;;20.30;75.10;;;;;;4938238;28;95823;-66
2022/04/26 12:24:48;;;;;;;33.55;21.13;;;20.30;75.00;;;;;;4940074;28;95859;-65
2022/04/26 12:27:22;;;;;;;32.35;20.58;;;20.20;75.00;;;;;;4937400;28;96387;-65
2022/04/26 12:29:53;;;;;;;30.55;19.70;;;20.30;75.00;;;;;;4936518;28;95831;-65
2022/04/26 12:32:26;;;;;;;31.33;20.13;;;20.20;75.00;;;;;;4939304;28;95958;-66
2022/04/26 12:35:01;;;;;;;32.47;20.30;;;20.20;75.00;;;;;;4957062;28;95768;-66
2022/04/26 12:37:34;;;;;;;30.23;18.45;;;20.20;75.00;;;;;;4957727;28;96424;-66
2022/04/26 12:40:10;;;;;;;30.73;19.67;;;20.10;75.10;;;;;;4956987;28;95822;-65
2022/04/26 12:42:45;;;;;;;30.35;18.83;;;20.10;75.20;;;;;;4947588;28;96583;-65
2022/04/26 12:45:23;;;;;;;28.48;19.33;;;20.10;75.20;;;;;;4958423;28;95698;-67
2022/04/26 12:51:20;;;;;;;30.55;19.10;;;20.10;75.20;;;;;;4956983;28;96273;-67
2022/04/26 12:54:12;;;;;;;32.63;18.77;;;20.00;75.20;;;;;;4959231;28;96916;-67
2022/04/26 12:57:03;;;;;;;27.17;18.40;;;20.00;75.20;;;;;;4960024;28;96673;-66
2022/04/26 12:59:36;;;;;;;27.55;17.08;;;20.10;75.30;;;;;;4959206;28;98046;-67
2022/04/26 13:02:07;;;;;;;25.90;17.13;;;20.10;75.40;;;;;;4951233;28;96042;-65
2022/04/26 13:04:38;;;;;;;29.17;18.40;;;20.00;75.40;;;;;;4954239;28;96033;-66
2022/04/26 13:07:11;;;;;;;26.67;17.35;;;20.00;75.30;;;;;;4954361;28;95433;-68
2022/04/26 13:09:42;;;;;;;29.60;17.13;;;20.00;75.40;;;;;;4959750;28;96537;-67
2022/04/26 13:12:16;;;;;;;21.63;15.65;;;20.00;75.30;;;;;;4957536;28;96539;-66
2022/04/26 13:14:47;;;;;;;27.80;16.55;;;20.00;75.50;;;;;;4959294;28;97897;-66
2022/04/26 13:17:21;;;;;;;27.65;16.35;;;19.90;75.20;;;;;;4949896;28;97862;-67
2022/04/26 13:19:52;;;;;;;24.73;16.42;;;19.90;75.40;;;;;;4959109;28;96341;-67
2022/04/26 13:22:24;;;;;;;24.55;15.23;;;19.90;75.40;;;;;;4952997;28;96228;-66
2022/04/26 13:24:54;;;;;;;;;;;19.90;75.40;;;;;;4957791;28;96027;-67
2022/04/26 13:27:24;;;;;;;20.02;14.02;;;19.90;75.50;;;;;;4962217;28;95682;-66
2022/04/26 13:29:55;;;;;;;20.45;13.60;;;19.90;75.40;;;;;;4958625;28;96333;-67
2022/04/26 13:32:30;;;;;;;21.27;13.30;;;19.90;75.50;;;;;;4950248;28;95892;-66
2022/04/26 13:35:04;;;;;;;21.42;14.77;;;19.80;75.40;;;;;;4959486;28;96524;-66
2022/04/26 13:37:36;;;;;;;20.92;13.52;;;19.80;75.50;;;;;;4955702;28;95727;-66
2022/04/26 13:40:09;;;;;;;21.63;14.75;;;19.80;75.50;;;;;;4952723;28;95907;-67
2022/04/26 13:42:40;;;;;;;20.08;13.60;;;19.80;75.60;;;;;;4948898;28;95957;-66
2022/04/26 13:45:11;;;;;;;20.45;14.18;;;19.80;75.50;;;;;;4951208;28;96048;-66
2022/04/26 13:47:43;;;;;;;16.92;12.02;;;19.80;75.50;;;;;;4962429;28;95621;-67
2022/04/26 13:50:14;;;;;;;16.63;12.05;;;19.80;75.50;;;;;;4962343;28;96072;-67
2022/04/26 13:52:44;;;;;;;;;;;19.80;75.40;;;;;;4962886;28;95982;-67
2022/04/26 13:55:18;;;;;;;19.83;12.10;;;19.80;75.40;;;;;;4960479;28;96482;-67
2022/04/26 13:57:52;;;;;;;15.13;11.73;;;19.80;75.40;;;;;;4958179;28;95704;-67
2022/04/26 14:00:23;;;;;;;17.38;12.40;;;19.80;75.50;;;;;;4952915;28;96349;-66
2022/04/26 14:02:53;;;;;;;17.92;12.23;;;19.70;75.30;;;;;;4961220;28;96240;-69
2022/04/26 14:05:27;;;;;;;15.50;11.05;;;19.80;70.50;;;;;;4961918;28;96279;-67
2022/04/26 14:07:58;;;;;;;14.38;11.20;;;19.70;75.40;;;;;;4963237;28;96264;-68
2022/04/26 14:10:30;;;;;;;16.38;11.93;;;19.70;75.40;;;;;;4960770;28;95912;-66
2022/04/26 14:13:00;;;;;;;16.20;11.25;;;19.70;75.60;;;;;;4956561;28;96818;-62
2022/04/26 14:24:12;;;;;;;12.48;9.57;;;20.20;75.00;;;;;;4964752;28;96402;-59
2022/04/26 14:26:42;;;;;;;12.68;10.13;;;20.30;74.60;;;;;;4965096;28;95226;-61
2022/04/26 14:29:14;;;;;;;12.40;9.75;;;20.40;74.40;;;;;;4963282;28;96087;-61
2022/04/26 14:31:50;;;;;;;13.70;9.70;;;20.60;70.70;;;;;;4954734;28;96332;-61
2022/04/26 14:34:26;;;;;;;11.38;9.27;;;20.60;74.10;;;;;;4965891;28;95927;-61
2022/04/26 14:36:58;;;;;;;9.98;7.35;;;20.70;74.00;;;;;;4965399;28;95844;-61
2022/04/26 14:39:31;;;;;;;10.52;8.05;;;20.80;73.80;;;;;;4966218;28;95669;-62
2022/04/26 14:42:04;;;;;;;13.13;8.65;;;20.90;73.60;;;;;;4953137;28;99000;-62
2022/04/26 14:44:36;;;;;;;9.50;7.85;;;21.00;73.50;;;;;;4953919;28;98433;-61
2022/04/26 14:47:07;;;;;;;11.65;7.95;;;21.10;73.20;;;;;;4953039;28;97407;-65
2022/04/26 14:49:38;;;;;;;8.17;7.03;;;21.20;73.20;;;;;;4964702;28;95616;-64
2022/04/26 14:52:14;;;;;;;9.93;8.13;;;21.20;72.90;;;;;;4967366;28;95759;-62
2022/04/26 14:55:01;;;;;;;7.57;6.47;;;21.20;72.80;;;;;;4965879;28;95954;-62
2022/04/26 14:57:32;;;;;;;8.38;7.47;;;21.30;72.70;;;;;;4966924;28;95295;-63
2022/04/26 15:00:05;;;;;;;;;;;21.30;72.60;;;;;;4948379;28;95347;-62
2022/04/26 15:02:38;;;;;;;9.77;7.47;;;21.40;72.50;;;;;;4960928;28;95969;-63
2022/04/26 15:05:11;;;;;;;7.45;5.70;;;21.60;72.40;;;;;;4965302;28;96104;-62
2022/04/26 15:10:31;;;;;;;7.95;6.88;;;21.70;71.90;;;;;;4966058;28;95953;-62
2022/04/26 15:18:40;;;;;;;9.27;7.60;;;21.90;71.60;;;;;;4961552;28;95664;-65
2022/04/26 15:21:10;;;;;;;;;;;21.90;69.40;;;;;;4959992;28;96719;-65
2022/04/26 15:23:42;;;;;;;12.55;8.85;;;21.70;69.00;;;;;;4962937;28;96446;-67
2022/04/26 15:26:12;;;;;;;11.55;8.23;;;21.60;69.80;;;;;;4961973;28;95892;-68
2022/04/26 15:28:42;;;;;;;13.32;8.40;;;21.50;70.20;;;;;;4962906;28;96445;-66
2022/04/26 15:31:16;;;;;;;8.73;7.05;;;21.40;70.20;;;;;;4954563;28;98743;-66
2022/04/26 15:33:48;;;;;;;9.85;7.93;;;21.20;70.30;;;;;;4962567;28;96397;-65
2022/04/26 15:36:21;;;;;;;10.30;7.25;;;21.20;70.30;;;;;;4955464;28;96366;-65
2022/04/26 15:38:58;;;;;;;8.70;7.03;;;21.20;70.40;;;;;;4961456;28;96962;-65
2022/04/26 15:41:32;;;;;;;9.27;7.55;;;21.10;70.30;;;;;;4952992;28;95876;-65
2022/04/26 15:44:05;;;;;;;12.07;7.97;;;21.10;70.50;;;;;;4953593;28;96617;-65
2022/04/26 15:46:43;;;;;;;9.43;8.10;;;21.10;70.50;;;;;;4952132;28;95921;-65
2022/04/26 15:49:14;;;;;;;9.60;7.70;;;21.00;71.10;;;;;;4963157;28;96051;-65
2022/04/26 15:51:47;;;;;;;9.25;7.22;;;20.90;70.60;;;;;;4959564;28;96033;-67
2022/04/26 15:54:19;;;;;;;11.77;8.43;;;20.90;70.70;;;;;;4961272;28;95815;-63
2022/04/26 15:56:49;;;;;;;9.88;7.90;;;20.90;71.20;;;;;;4964484;28;95837;-65
2022/04/26 15:59:20;;;;;;;;;;;20.80;71.40;;;;;;4960033;28;95312;-65
2022/04/26 16:01:50;;;;;;;9.57;7.05;;;20.80;69.80;;;;;;4948414;28;95756;-64
2022/04/26 16:04:22;;;;;;;;;;;20.70;71.70;;;;;;4935387;28;95938;-65
2022/04/26 16:06:52;;;;;;;10.93;8.07;;;20.50;72.20;;;;;;4935601;28;95887;-65
2022/04/26 16:27:48;;;;;;;11.00;8.40;;;19.90;73.70;;;;;;5070977;27;95761;-65
2022/04/26 16:30:26;;;;;;;11.38;7.93;;;19.90;75.00;;;;;;5028204;27;95800;-65
2022/04/26 16:32:58;;;;;;;9.75;7.50;;;19.80;74.30;;;;;;5016187;27;95932;-65
2022/04/26 16:35:32;;;;;;;11.18;8.07;;;19.80;74.40;;;;;;5023491;27;96481;-67
2022/04/26 16:38:02;;;;;;;12.38;8.13;;;19.80;74.50;;;;;;5018999;27;96067;-67
2022/04/26 16:40:35;;;;;;;14.15;7.38;;;19.70;71.60;;;;;;5019284;28;95839;-72
2022/04/26 16:43:07;;;;;;;8.90;6.88;;;19.60;74.90;;;;;;5018614;28;95968;-74
2022/04/26 16:45:36;;;;;;;;;;;19.60;75.10;;;;;;4999926;28;98281;-72
2022/04/26 16:48:09;;;;;;;9.35;7.63;;;19.50;75.20;;;;;;5013961;28;95854;-72
2022/04/26 16:50:39;;;;;;;8.27;6.60;;;19.50;75.20;;;;;;5035849;27;96203;-76
2022/04/26 16:53:09;;;;;;;10.65;7.25;;;19.50;75.20;;;;;;5021617;28;95943;-75
2022/04/26 16:55:40;;;;;;;9.18;7.30;;;19.40;75.30;;;;;;5037863;27;96154;-76
2022/04/26 16:58:12;;;;;;;9.40;6.90;;;19.40;75.30;;;;;;5021078;28;97004;-76
2022/04/26 17:00:47;;;;;;;10.13;7.78;;;19.40;75.40;;;;;;5005175;27;95627;-76
2022/04/26 17:03:18;;;;;;;7.70;6.53;;;19.40;75.40;;;;;;5021821;28;96041;-74
2022/04/26 17:05:49;;;;;;;8.93;7.32;;;19.40;75.50;;;;;;5010168;27;95970;-76
2022/04/26 17:08:19;;;;;;;;;;;19.30;72.50;;;;;;5023779;28;97907;-75
2022/04/26 17:10:50;;;;;;;9.32;7.22;;;19.20;75.80;;;;;;5013408;27;95724;-75
2022/04/26 17:13:22;;;;;;;10.25;7.22;;;19.30;76.00;;;;;;5031760;27;95386;-75
2022/04/26 17:15:54;;;;;;;7.53;6.22;;;19.20;75.90;;;;;;5016610;27;95945;-74
2022/04/26 17:18:27;;;;;;;8.85;7.57;;;19.20;76.00;;;;;;5013553;28;95888;-75
2022/04/26 17:20:58;;;;;;;8.93;6.72;;;19.20;76.20;;;;;;5020386;28;95851;-75
2022/04/26 17:23:30;;;;;;;8.13;6.70;;;19.10;76.20;;;;;;5008262;28;95369;-75
2022/04/26 17:26:00;;;;;;;8.18;7.00;;;19.10;76.20;;;;;;5013691;28;95901;-75
2022/04/26 17:28:33;;;;;;;7.78;6.88;;;19.10;76.30;;;;;;5024868;27;95714;-76
2022/04/26 17:31:06;;;;;;;7.72;6.30;;;19.10;76.30;;;;;;5006841;27;95386;-75
2022/04/26 17:33:39;;;;;;;8.45;6.97;;;19.00;76.40;;;;;;5009692;27;95711;-75
2022/04/26 17:36:12;;;;;;;7.18;6.45;;;19.00;76.50;;;;;;5034133;27;95746;-76
2022/04/26 17:38:44;;;;;;;8.65;6.97;;;18.90;76.60;;;;;;5013583;28;97842;-75
2022/04/26 17:41:17;;;;;;;9.75;7.03;;;18.90;76.80;;;;;;5005154;28;95900;-75
2022/04/26 17:43:47;;;;;;;8.55;6.65;;;18.90;76.80;;;;;;5010697;28;96112;-75
2022/04/26 17:46:17;;;;;;;7.75;6.07;;;18.90;76.90;;;;;;4989757;28;96446;-75
2022/04/26 17:48:51;;;;;;;10.55;7.30;;;18.80;76.90;;;;;;5005083;28;95497;-75
2022/04/26 17:51:22;;;;;;;8.15;6.32;;;18.80;76.80;;;;;;4993515;28;95794;-76